createdAt,value
2018-07-14T00:00:23.879Z,23.5
2018-07-14T00:10:23.123Z,23.5
2018-07-14T00:20:22.363Z,23.6
2018-07-14T00:30:21.592Z,23.6
2018-07-14T00:40:20.829Z,23.5
2018-07-14T00:50:20.069Z,23.6
2018-07-14T01:00:19.304Z,23.5
2018-07-14T01:10:18.543Z,23.5
2018-07-14T01:20:17.781Z,23.4
2018-07-14T01:30:17.020Z,23.5
2018-07-14T01:40:16.253Z,23.5
2018-07-14T01:50:15.493Z,23.5
2018-07-14T02:00:14.778Z,23.5
2018-07-14T02:10:13.963Z,23.5
2018-07-14T02:20:13.204Z,23.4
2018-07-14T02:30:12.436Z,23.4
2018-07-14T02:40:11.687Z,23.4
2018-07-14T02:50:10.910Z,23.4
2018-07-14T03:00:10.148Z,23.3
2018-07-14T03:10:09.382Z,23.3
2018-07-14T03:20:08.620Z,23.2
2018-07-14T03:30:07.856Z,23.1
2018-07-14T03:40:07.093Z,21.5
2018-07-14T03:50:06.329Z,21.4
2018-07-14T04:00:05.574Z,21.8
2018-07-14T04:10:04.800Z,22.4
2018-07-14T04:20:04.034Z,22.9
2018-07-14T04:30:03.271Z,23.1
2018-07-14T04:40:02.507Z,23.4
2018-07-14T04:50:01.744Z,23.8
2018-07-14T05:00:00.981Z,24.1
2018-07-14T05:10:00.227Z,24.5
2018-07-14T05:19:59.455Z,24.7
2018-07-14T05:29:58.696Z,24.6
2018-07-14T05:39:57.935Z,24.7
2018-07-14T05:49:57.173Z,25.1
2018-07-14T05:59:56.408Z,25.3
2018-07-14T06:09:55.650Z,26
2018-07-14T06:19:54.886Z,25.6
2018-07-14T06:29:54.126Z,25.9
2018-07-14T06:39:53.365Z,26.3
2018-07-14T06:49:52.615Z,26.3
2018-07-14T06:59:51.844Z,26.6
2018-07-14T07:09:51.083Z,26.7
2018-07-14T07:19:50.339Z,26.5
2018-07-14T07:29:49.564Z,26.9
2018-07-14T07:39:48.809Z,26.7
2018-07-14T07:49:48.045Z,27.7
2018-07-14T07:59:47.289Z,27.9
2018-07-14T08:09:46.526Z,27.9
2018-07-14T08:19:45.829Z,27.9
2018-07-14T08:29:45.008Z,26.8
2018-07-14T08:39:44.245Z,26.8
2018-07-14T08:49:43.484Z,26.5
2018-07-14T08:59:42.723Z,27.2
2018-07-14T09:09:41.960Z,27.5
2018-07-14T09:19:41.200Z,28.4
2018-07-14T09:29:40.443Z,26.6
2018-07-14T09:39:39.692Z,27.1
2018-07-14T09:49:38.924Z,27
2018-07-14T09:59:38.163Z,27.4
2018-07-14T10:09:37.404Z,27.3
2018-07-14T10:19:36.652Z,27.5
2018-07-14T10:29:35.893Z,27.6
2018-07-14T10:39:35.133Z,28.6
2018-07-14T10:49:34.369Z,28.9
2018-07-14T10:59:33.606Z,27.8
2018-07-14T11:09:32.849Z,27.3
2018-07-14T11:19:32.093Z,27.1
2018-07-14T11:29:31.336Z,27.6
2018-07-14T11:39:30.569Z,27.6
2018-07-14T11:49:29.807Z,27.9
2018-07-14T11:59:29.050Z,27.1
2018-07-14T12:09:28.338Z,27.1
2018-07-14T12:19:27.528Z,28.1
2018-07-14T12:29:26.787Z,28.5
2018-07-14T12:39:26.029Z,28.1
2018-07-14T12:49:25.246Z,27.9
2018-07-14T12:59:24.493Z,27.7
2018-07-14T13:09:23.725Z,28.5
2018-07-14T13:19:22.964Z,27.5
2018-07-14T13:29:22.210Z,27.4
2018-07-14T13:39:21.442Z,26.6
2018-07-14T13:49:20.682Z,27.1
2018-07-14T13:59:19.921Z,26.4
2018-07-14T14:09:19.160Z,26.3
2018-07-14T14:19:18.399Z,26.3
2018-07-14T14:29:17.644Z,26.1
2018-07-14T14:39:16.879Z,27.1
2018-07-14T14:49:16.120Z,27.8
2018-07-14T14:59:15.357Z,27.8
2018-07-14T15:09:14.687Z,27.6
2018-07-14T15:19:13.844Z,27.3
2018-07-14T15:29:13.077Z,27.2
2018-07-14T15:39:12.316Z,26.9
2018-07-14T15:49:11.555Z,26.6
2018-07-14T15:59:10.797Z,26.6
2018-07-14T16:09:10.037Z,26.6
2018-07-14T16:19:09.386Z,26.4
2018-07-14T16:29:08.515Z,26.3
2018-07-14T16:39:07.766Z,26.3
2018-07-14T16:49:06.997Z,26.1
2018-07-14T16:59:06.234Z,26.1
2018-07-14T17:09:05.471Z,25.9
2018-07-14T17:19:04.760Z,25.8
2018-07-14T17:29:03.950Z,25.7
2018-07-14T17:39:03.191Z,25.4
2018-07-14T17:49:02.431Z,25.2
2018-07-14T17:59:01.671Z,24.8
2018-07-14T18:09:00.911Z,24.2
2018-07-14T18:19:00.153Z,24.2
2018-07-14T18:28:59.393Z,24.1
2018-07-14T18:38:58.645Z,24.2
2018-07-14T18:48:57.872Z,24.1
2018-07-14T18:58:57.116Z,24
2018-07-14T19:08:56.406Z,23.8
2018-07-14T19:18:55.598Z,23.7
2018-07-14T19:28:54.839Z,23.7
2018-07-14T19:38:54.081Z,23.8
2018-07-14T19:48:53.319Z,23.8
2018-07-14T19:58:52.556Z,23.8
2018-07-14T20:08:51.798Z,23.8
2018-07-14T20:18:51.043Z,23.8
2018-07-14T20:28:50.278Z,23.6
2018-07-14T20:38:49.522Z,23.7
2018-07-14T20:48:48.766Z,23.8
2018-07-14T20:58:48.000Z,23.8
2018-07-14T21:08:47.237Z,23.7
2018-07-14T21:18:46.480Z,23.8
2018-07-14T21:28:45.725Z,23.8
2018-07-14T21:38:44.954Z,23.8
2018-07-14T21:48:44.195Z,23.8
2018-07-14T21:58:43.434Z,23.7
2018-07-14T22:08:42.672Z,22.3
2018-07-14T22:18:41.914Z,23.2
2018-07-14T22:28:41.149Z,23.1
2018-07-14T22:38:40.390Z,23.4
2018-07-14T22:48:39.626Z,23.4
2018-07-14T22:58:38.864Z,23.4
2018-07-14T23:08:38.101Z,23.4
2018-07-14T23:18:37.344Z,23.4
2018-07-14T23:28:36.577Z,23.4
2018-07-14T23:38:35.814Z,23.4
2018-07-14T23:48:35.052Z,23.4
2018-07-14T23:58:34.292Z,23.5
